Time,TemperatureF,DewpointF,PressureIn,WindDirection,WindDirectionDegrees,WindSpeedMPH,WindSpeedGustMPH,Humidity,HourlyPrecipIn,Conditions,Clouds,dailyrainin,SoftwareType,DateUTC
2013-02-20 00:00:00,40.2,15.4,30.12,NW,305,0.0,6.0,36,0.00,,,0.30,WeatherCatV1.11B39,2013-02-20 05:00:00,
2013-02-20 00:05:00,40.2,14.8,30.12,NW,313,2.0,2.0,35,0.00,,,0.00,WeatherCatV1.11B39,2013-02-20 05:05:00,
2013-02-20 00:10:00,39.9,16.4,30.12,NNE,24,0.0,0.0,38,0.00,,,0.00,WeatherCatV1.11B39,2013-02-20 05:10:00,
2013-02-20 00:15:00,39.9,14.5,30.12,NW,304,0.0,3.0,35,0.00,,,0.00,WeatherCatV1.11B39,2013-02-20 05:15:00,
2013-02-20 00:20:00,39.6,14.9,30.12,WNW,301,0.0,1.0,36,0.00,,,0.00,WeatherCatV1.11B39,2013-02-20 05:20:00,
2013-02-20 00:25:00,39.6,15.5,30.12,NNW,330,0.0,1.0,37,0.00,,,0.00,WeatherCatV1.11B39,2013-02-20 05:25:00,
2013-02-20 00:30:00,39.3,16.4,30.10,NNW,335,2.0,2.0,39,0.00,,,0.00,WeatherCatV1.11B39,2013-02-20 05:30:00,
2013-02-20 00:33:00,39.2,16.3,30.10,North,350,1.0,2.0,39,0.00,,,0.00,WeatherCatV1.11B39,2013-02-20 05:33:00,
2013-02-20 00:35:00,38.9,16.1,30.10,North,350,0.0,0.0,39,0.00,,,0.00,WeatherCatV1.11B39,2013-02-20 05:35:00,
2013-02-20 00:40:00,38.5,15.1,30.10,North,350,0.0,0.0,38,0.00,,,0.00,WeatherCatV1.11B39,2013-02-20 05:40:00,
2013-02-20 00:45:00,38.5,16.3,30.11,North,350,0.0,0.0,40,0.00,,,0.00,WeatherCatV1.11B39,2013-02-20 05:45:00,
2013-02-20 00:50:00,38.5,15.7,30.11,North,350,0.0,0.0,39,0.00,,,0.00,WeatherCatV1.11B39,2013-02-20 05:50:00,
2013-02-20 00:55:00,38.5,15.7,30.11,NNW,347,0.0,2.0,39,0.00,,,0.00,WeatherCatV1.11B39,2013-02-20 05:55:00,
2013-02-20 01:00:00,37.8,16.8,30.12,NNW,347,2.0,2.0,42,0.00,,,0.00,WeatherCatV1.11B39,2013-02-20 06:00:00,
2013-02-20 01:05:00,37.8,17.3,30.12,NNW,346,0.0,2.0,43,0.00,,,0.00,WeatherCatV1.11B39,2013-02-20 06:05:00,
2013-02-20 01:10:00,37.8,16.8,30.12,NNW,346,0.0,0.0,42,0.00,,,0.00,WeatherCatV1.11B39,2013-02-20 06:10:00,
2013-02-20 01:15:00,37.2,16.2,30.11,NNW,346,0.0,0.0,42,0.00,,,0.00,WeatherCatV1.11B39,2013-02-20 06:15:00,
2013-02-20 01:20:00,37.0,16.1,30.11,NNW,346,0.0,0.0,42,0.00,,,0.00,WeatherCatV1.11B39,2013-02-20 06:20:00,
2013-02-20 01:25:00,36.9,16.0,30.11,NNW,346,0.0,0.0,42,0.00,,,0.00,WeatherCatV1.11B39,2013-02-20 06:25:00,
2013-02-20 01:30:00,36.6,16.2,30.12,NNW,346,0.0,0.0,43,0.00,,,0.00,WeatherCatV1.11B39,2013-02-20 06:30:00,
2013-02-20 01:35:00,36.3,16.5,30.12,NNW,346,0.0,0.0,44,0.00,,,0.00,WeatherCatV1.11B39,2013-02-20 06:35:00,
2013-02-20 01:40:00,36.2,16.4,30.12,NNW,346,1.0,1.0,44,0.00,,,0.00,WeatherCatV1.11B39,2013-02-20 06:40:00,
2013-02-20 01:45:00,36.2,16.9,30.12,NNW,346,0.0,0.0,45,0.00,,,0.00,WeatherCatV1.11B39,2013-02-20 06:45:00,
2013-02-20 01:50:00,36.0,17.3,30.12,WNW,296,0.0,2.0,46,0.00,,,0.00,WeatherCatV1.11B39,2013-02-20 06:50:00,
2013-02-20 01:55:00,36.2,15.9,30.12,WNW,302,1.0,2.0,43,0.00,,,0.00,WeatherCatV1.11B39,2013-02-20 06:55:00,
2013-02-20 02:00:00,36.5,16.2,30.12,WNW,285,0.0,1.0,43,0.00,,,0.00,WeatherCatV1.11B39,2013-02-20 07:00:00,
2013-02-20 02:05:00,36.5,16.2,30.12,WNW,285,2.0,2.0,43,0.00,,,0.00,WeatherCatV1.11B39,2013-02-20 07:05:00,
2013-02-20 02:10:00,36.5,16.2,30.12,West,280,0.0,3.0,43,0.00,,,0.00,WeatherCatV1.11B39,2013-02-20 07:10:00,
2013-02-20 02:15:00,36.5,16.2,30.11,West,277,0.0,1.0,43,0.00,,,0.00,WeatherCatV1.11B39,2013-02-20 07:15:00,
2013-02-20 02:20:00,36.3,16.5,30.11,West,277,0.0,0.0,44,0.00,,,0.00,WeatherCatV1.11B39,2013-02-20 07:20:00,
2013-02-20 02:25:00,36.3,16.0,30.11,West,277,0.0,0.0,43,0.00,,,0.00,WeatherCatV1.11B39,2013-02-20 07:25:00,
2013-02-20 02:30:00,36.3,16.5,30.11,West,278,0.0,0.0,44,0.00,,,0.00,WeatherCatV1.11B39,2013-02-20 07:30:00,
2013-02-20 02:35:00,35.9,16.7,30.11,West,277,0.0,3.0,45,0.00,,,0.00,WeatherCatV1.11B39,2013-02-20 07:35:00,
2013-02-20 02:40:00,35.8,16.6,30.11,NW,326,0.0,6.0,45,0.00,,,0.00,WeatherCatV1.11B39,2013-02-20 07:40:00,
2013-02-20 02:45:00,35.8,16.6,30.10,WNW,298,1.0,3.0,45,0.00,,,0.00,WeatherCatV1.11B39,2013-02-20 07:45:00,
2013-02-20 02:50:00,35.8,15.5,30.10,North,0,0.0,3.0,43,0.00,,,0.00,WeatherCatV1.11B39,2013-02-20 07:50:00,
2013-02-20 02:55:00,35.8,14.4,30.10,North,353,2.0,7.0,41,0.00,,,0.00,WeatherCatV1.11B39,2013-02-20 07:55:00,
2013-02-20 03:00:00,35.9,15.1,30.10,NNW,330,0.0,4.0,42,0.00,,,0.00,WeatherCatV1.11B39,2013-02-20 08:00:00,
2013-02-20 03:05:00,35.8,14.4,30.10,North,0,5.0,5.0,41,0.00,,,0.00,WeatherCatV1.11B39,2013-02-20 08:05:00,
2013-02-20 03:10:00,35.6,14.8,30.10,WSW,251,0.0,3.0,42,0.00,,,0.00,WeatherCatV1.11B39,2013-02-20 08:10:00,
2013-02-20 03:15:00,35.5,14.7,30.10,NW,316,0.0,0.0,42,0.00,,,0.00,WeatherCatV1.11B39,2013-02-20 08:15:00,
2013-02-20 03:20:00,35.3,14.5,30.10,North,0,0.0,1.0,42,0.00,,,0.00,WeatherCatV1.11B39,2013-02-20 08:20:00,
2013-02-20 03:25:00,35.2,13.9,30.10,NW,304,0.0,0.0,41,0.00,,,0.00,WeatherCatV1.11B39,2013-02-20 08:25:00,
2013-02-20 03:30:00,35.0,14.3,30.11,NW,304,1.0,2.0,42,0.00,,,0.00,WeatherCatV1.11B39,2013-02-20 08:30:00,
2013-02-20 03:35:00,34.9,14.2,30.11,NW,304,0.0,2.0,42,0.00,,,0.00,WeatherCatV1.11B39,2013-02-20 08:35:00,
2013-02-20 03:40:00,34.6,13.3,30.11,NW,304,0.0,0.0,41,0.00,,,0.00,WeatherCatV1.11B39,2013-02-20 08:40:00,
2013-02-20 03:45:00,34.6,13.3,30.10,NW,304,1.0,2.0,41,0.00,,,0.00,WeatherCatV1.11B39,2013-02-20 08:45:00,
2013-02-20 03:48:00,34.4,13.2,30.10,NW,304,0.0,1.0,41,0.00,,,0.00,WeatherCatV1.11B39,2013-02-20 08:48:00,
2013-02-20 03:53:00,34.3,13.1,30.10,NW,304,0.0,0.0,41,0.00,,,0.00,WeatherCatV1.11B39,2013-02-20 08:53:00,
2013-02-20 03:58:00,34.3,13.6,30.10,NW,304,2.0,3.0,42,0.00,,,0.00,WeatherCatV1.11B39,2013-02-20 08:58:00,
2013-02-20 04:03:00,34.3,12.5,30.10,NW,304,0.0,3.0,40,0.00,,,0.00,WeatherCatV1.11B39,2013-02-20 09:03:00,
2013-02-20 04:08:00,34.3,12.5,30.10,NW,304,0.0,0.0,40,0.00,,,0.00,WeatherCatV1.11B39,2013-02-20 09:08:00,
2013-02-20 04:13:00,34.3,14.2,30.10,NW,304,0.0,0.0,43,0.00,,,0.00,WeatherCatV1.11B39,2013-02-20 09:13:00,
2013-02-20 04:18:00,34.1,14.5,30.09,NNE,14,0.0,0.0,44,0.00,,,0.00,WeatherCatV1.11B39,2013-02-20 09:18:00,
2013-02-20 04:23:00,34.0,14.4,30.09,NNW,330,1.0,2.0,44,0.00,,,0.00,WeatherCatV1.11B39,2013-02-20 09:23:00,
2013-02-20 04:28:00,33.8,13.7,30.09,NNW,336,0.0,2.0,43,0.00,,,0.00,WeatherCatV1.11B39,2013-02-20 09:28:00,
2013-02-20 04:33:00,33.7,13.6,30.08,NNW,343,0.0,3.0,43,0.00,,,0.00,WeatherCatV1.11B39,2013-02-20 09:33:00,
2013-02-20 04:38:00,33.5,13.9,30.08,NNW,340,0.0,0.0,44,0.00,,,0.00,WeatherCatV1.11B39,2013-02-20 09:38:00,
2013-02-20 04:43:00,33.4,12.8,30.08,NNW,329,0.0,1.0,42,0.00,,,0.00,WeatherCatV1.11B39,2013-02-20 09:43:00,
2013-02-20 04:48:00,33.4,14.9,30.08,North,4,2.0,7.0,46,0.00,,,0.00,WeatherCatV1.11B39,2013-02-20 09:48:00,
2013-02-20 04:53:00,33.7,12.5,30.08,West,278,0.0,1.0,41,0.00,,,0.00,WeatherCatV1.11B39,2013-02-20 09:53:00,
2013-02-20 04:58:00,33.8,11.5,30.08,WSW,257,0.0,1.0,39,0.00,,,0.00,WeatherCatV1.11B39,2013-02-20 09:58:00,
2013-02-20 05:03:00,34.1,11.8,30.08,WSW,257,0.0,2.0,39,0.00,,,0.00,WeatherCatV1.11B39,2013-02-20 10:03:00,
2013-02-20 05:08:00,34.3,11.4,30.08,North,4,0.0,1.0,38,0.00,,,0.00,WeatherCatV1.11B39,2013-02-20 10:08:00,
2013-02-20 05:13:00,34.4,11.5,30.08,North,4,0.0,0.0,38,0.00,,,0.00,WeatherCatV1.11B39,2013-02-20 10:13:00,
2013-02-20 05:18:00,34.3,11.4,30.08,North,4,0.0,0.0,38,0.00,,,0.00,WeatherCatV1.11B39,2013-02-20 10:18:00,
2013-02-20 05:23:00,34.3,11.9,30.08,North,3,0.0,0.0,39,0.00,,,0.00,WeatherCatV1.11B39,2013-02-20 10:23:00,
2013-02-20 05:28:00,34.3,11.9,30.08,North,3,0.0,0.0,39,0.00,,,0.00,WeatherCatV1.11B39,2013-02-20 10:28:00,
2013-02-20 05:33:00,34.3,12.5,30.09,North,3,0.0,0.0,40,0.00,,,0.00,WeatherCatV1.11B39,2013-02-20 10:33:00,
2013-02-20 05:38:00,32.8,12.3,30.09,North,3,0.0,0.0,42,0.00,,,0.00,WeatherCatV1.11B39,2013-02-20 10:38:00,
2013-02-20 05:43:00,32.4,11.9,30.09,North,3,0.0,0.0,42,0.00,,,0.00,WeatherCatV1.11B39,2013-02-20 10:43:00,
2013-02-20 05:48:00,31.9,13.5,30.09,North,3,0.0,0.0,46,0.00,,,0.00,WeatherCatV1.11B39,2013-02-20 10:48:00,
2013-02-20 05:53:00,31.6,12.2,30.09,North,3,0.0,0.0,44,0.00,,,0.00,WeatherCatV1.11B39,2013-02-20 10:53:00,
2013-02-20 05:58:00,31.5,12.1,30.09,North,3,0.0,0.0,44,0.00,,,0.00,WeatherCatV1.11B39,2013-02-20 10:58:00,
2013-02-20 06:03:00,31.2,14.8,30.09,North,3,0.0,0.0,50,0.00,,,0.00,WeatherCatV1.11B39,2013-02-20 11:03:00,
2013-02-20 06:08:00,30.9,14.5,30.09,North,3,0.0,0.0,50,0.00,,,0.00,WeatherCatV1.11B39,2013-02-20 11:08:00,
2013-02-20 06:13:00,30.9,12.1,30.09,North,3,0.0,0.0,45,0.00,,,0.00,WeatherCatV1.11B39,2013-02-20 11:13:00,
2013-02-20 06:18:00,31.2,12.9,30.10,North,3,0.0,0.0,46,0.00,,,0.00,WeatherCatV1.11B39,2013-02-20 11:18:00,
2013-02-20 06:23:00,31.5,13.1,30.10,North,3,0.0,0.0,46,0.00,,,0.00,WeatherCatV1.11B39,2013-02-20 11:23:00,
2013-02-20 06:28:00,31.5,14.6,30.10,North,3,0.0,0.0,49,0.00,,,0.00,WeatherCatV1.11B39,2013-02-20 11:28:00,
2013-02-20 06:33:00,31.5,14.6,30.10,North,3,0.0,0.0,49,0.00,,,0.00,WeatherCatV1.11B39,2013-02-20 11:33:00,
2013-02-20 06:38:00,31.6,13.2,30.10,North,3,0.0,0.0,46,0.00,,,0.00,WeatherCatV1.11B39,2013-02-20 11:38:00,
2013-02-20 06:43:00,31.5,14.1,30.10,North,3,0.0,0.0,48,0.00,,,0.00,WeatherCatV1.11B39,2013-02-20 11:43:00,
2013-02-20 06:48:00,31.2,14.8,30.11,North,3,0.0,0.0,50,0.00,,,0.00,WeatherCatV1.11B39,2013-02-20 11:48:00,
2013-02-20 06:53:00,31.2,14.3,30.11,North,3,0.0,0.0,49,0.00,,,0.00,WeatherCatV1.11B39,2013-02-20 11:53:00,
2013-02-20 06:58:00,31.0,15.0,30.11,North,3,0.0,0.0,51,0.00,,,0.00,WeatherCatV1.11B39,2013-02-20 11:58:00,
2013-02-20 07:03:00,31.0,16.3,30.11,North,3,0.0,0.0,54,0.00,,,0.00,WeatherCatV1.11B39,2013-02-20 12:03:00,
2013-02-20 07:08:00,31.3,14.8,30.11,North,3,0.0,0.0,50,0.00,,,0.00,WeatherCatV1.11B39,2013-02-20 12:08:00,
2013-02-20 07:13:00,31.6,15.1,30.11,North,3,0.0,0.0,50,0.00,,,0.00,WeatherCatV1.11B39,2013-02-20 12:13:00,
2013-02-20 07:18:00,31.8,15.3,30.12,North,3,0.0,0.0,50,0.00,,,0.00,WeatherCatV1.11B39,2013-02-20 12:18:00,
2013-02-20 07:23:00,31.6,15.1,30.12,North,3,0.0,0.0,50,0.00,,,0.00,WeatherCatV1.11B39,2013-02-20 12:23:00,
2013-02-20 07:28:00,31.6,16.9,30.12,North,3,0.0,0.0,54,0.00,,,0.00,WeatherCatV1.11B39,2013-02-20 12:28:00,
2013-02-20 07:33:00,31.6,17.3,30.12,North,3,0.0,0.0,55,0.00,,,0.00,WeatherCatV1.11B39,2013-02-20 12:33:00,
2013-02-20 07:38:00,31.6,17.3,30.12,North,3,0.0,0.0,55,0.00,,,0.00,WeatherCatV1.11B39,2013-02-20 12:38:00,
2013-02-20 07:43:00,32.2,18.3,30.12,North,3,0.0,0.0,56,0.00,,,0.00,WeatherCatV1.11B39,2013-02-20 12:43:00,
2013-02-20 07:48:00,33.1,15.1,30.12,North,3,0.0,0.0,47,0.00,,,0.00,WeatherCatV1.11B39,2013-02-20 12:48:00,
2013-02-20 07:53:00,33.2,14.7,30.12,North,3,0.0,0.0,46,0.00,,,0.00,WeatherCatV1.11B39,2013-02-20 12:53:00,
2013-02-20 07:58:00,34.1,14.0,30.12,North,3,0.0,0.0,43,0.00,,,0.00,WeatherCatV1.11B39,2013-02-20 12:58:00,
2013-02-20 08:03:00,34.7,15.6,30.13,North,357,1.0,3.0,45,0.00,,,0.00,WeatherCatV1.11B39,2013-02-20 13:03:00,
2013-02-20 08:08:00,34.7,14.5,30.13,North,357,0.0,0.0,43,0.00,,,0.00,WeatherCatV1.11B39,2013-02-20 13:08:00,
2013-02-20 08:13:00,34.7,15.0,30.13,North,357,0.0,1.0,44,0.00,,,0.00,WeatherCatV1.11B39,2013-02-20 13:13:00,
2013-02-20 08:18:00,36.0,15.2,30.14,North,357,0.0,0.0,42,0.00,,,0.00,WeatherCatV1.11B39,2013-02-20 13:18:00,
2013-02-20 08:23:00,37.0,14.9,30.14,North,359,0.0,1.0,40,0.00,,,0.00,WeatherCatV1.11B39,2013-02-20 13:23:00,
2013-02-20 08:28:00,37.6,15.5,30.14,North,359,0.0,1.0,40,0.00,,,0.00,WeatherCatV1.11B39,2013-02-20 13:28:00,
2013-02-20 08:33:00,38.2,16.0,30.14,North,359,0.0,0.0,40,0.00,,,0.00,WeatherCatV1.11B39,2013-02-20 13:33:00,
2013-02-20 08:38:00,38.8,17.1,30.14,WSW,244,1.0,3.0,41,0.00,,,0.00,WeatherCatV1.11B39,2013-02-20 13:38:00,
2013-02-20 08:43:00,38.9,14.9,30.14,West,267,2.0,3.0,37,0.00,,,0.00,WeatherCatV1.11B39,2013-02-20 13:43:00,
2013-02-20 08:48:00,39.2,15.1,30.15,North,1,0.0,0.0,37,0.00,,,0.00,WeatherCatV1.11B39,2013-02-20 13:48:00,
2013-02-20 08:53:00,39.8,15.0,30.15,North,3,0.0,0.0,36,0.00,,,0.00,WeatherCatV1.11B39,2013-02-20 13:53:00,
2013-02-20 08:58:00,39.6,14.9,30.15,North,0,0.0,0.0,36,0.00,,,0.00,WeatherCatV1.11B39,2013-02-20 13:58:00,
2013-02-20 09:03:00,39.5,14.8,30.15,WNW,301,0.0,0.0,36,0.00,,,0.00,WeatherCatV1.11B39,2013-02-20 14:03:00,
2013-02-20 09:08:00,39.5,14.8,30.15,South,184,1.0,1.0,36,0.00,,,0.00,WeatherCatV1.11B39,2013-02-20 14:08:00,
2013-02-20 09:13:00,39.5,14.8,30.15,South,184,0.0,0.0,36,0.00,,,0.00,WeatherCatV1.11B39,2013-02-20 14:13:00,
2013-02-20 09:18:00,39.5,14.8,30.15,NW,313,1.0,1.0,36,0.00,,,0.00,WeatherCatV1.11B39,2013-02-20 14:18:00,
2013-02-20 09:23:00,39.5,14.8,30.15,North,359,0.0,0.0,36,0.00,,,0.00,WeatherCatV1.11B39,2013-02-20 14:23:00,
2013-02-20 09:28:00,40.2,15.4,30.15,SW,232,0.0,0.0,36,0.00,,,0.00,WeatherCatV1.11B39,2013-02-20 14:28:00,
2013-02-20 09:33:00,40.8,9.4,30.15,WSW,250,2.0,3.0,27,0.00,,,0.00,WeatherCatV1.11B39,2013-02-20 14:33:00,
2013-02-20 09:38:00,40.8,9.4,30.15,NNW,330,0.0,6.0,27,0.00,,,0.00,WeatherCatV1.11B39,2013-02-20 14:38:00,
2013-02-20 09:43:00,40.8,9.4,30.15,NW,323,0.0,6.0,27,0.00,,,0.00,WeatherCatV1.11B39,2013-02-20 14:43:00,
2013-02-20 09:48:00,40.8,9.4,30.14,WNW,288,0.0,0.0,27,0.00,,,0.00,WeatherCatV1.11B39,2013-02-20 14:48:00,
2013-02-20 09:53:00,42.2,10.6,30.14,NW,311,2.0,3.0,27,0.00,,,0.00,WeatherCatV1.11B39,2013-02-20 14:53:00,
2013-02-20 09:58:00,42.3,10.7,30.14,NNW,337,3.0,6.0,27,0.00,,,0.00,WeatherCatV1.11B39,2013-02-20 14:58:00,
2013-02-20 10:03:00,42.6,11.0,30.14,NW,309,0.0,5.0,27,0.00,,,0.00,WeatherCatV1.11B39,2013-02-20 15:03:00,
2013-02-20 10:08:00,42.9,11.2,30.14,West,281,1.0,3.0,27,0.00,,,0.00,WeatherCatV1.11B39,2013-02-20 15:08:00,
2013-02-20 10:13:00,43.2,9.8,30.14,WSW,239,1.0,5.0,25,0.00,,,0.00,WeatherCatV1.11B39,2013-02-20 15:13:00,
2013-02-20 10:18:00,43.6,10.1,30.15,NW,304,5.0,5.0,25,0.00,,,0.00,WeatherCatV1.11B39,2013-02-20 15:18:00,
2013-02-20 10:23:00,43.9,10.4,30.15,North,1,2.0,2.0,25,0.00,,,0.00,WeatherCatV1.11B39,2013-02-20 15:23:00,
2013-02-20 10:28:00,44.5,10.9,30.15,North,352,0.0,0.0,25,0.00,,,0.00,WeatherCatV1.11B39,2013-02-20 15:28:00,
2013-02-20 10:33:00,44.8,11.2,30.14,WSW,258,0.0,5.0,25,0.00,,,0.00,WeatherCatV1.11B39,2013-02-20 15:33:00,
2013-02-20 10:38:00,44.6,11.0,30.14,ESE,123,4.0,5.0,25,0.00,,,0.00,WeatherCatV1.11B39,2013-02-20 15:38:00,
2013-02-20 10:43:00,44.6,11.9,30.14,South,191,1.0,1.0,26,0.00,,,0.00,WeatherCatV1.11B39,2013-02-20 15:43:00,
2013-02-20 10:48:00,44.8,11.2,30.14,SW,229,1.0,3.0,25,0.00,,,0.00,WeatherCatV1.11B39,2013-02-20 15:48:00,
2013-02-20 10:53:00,45.1,10.5,30.14,WSW,241,0.0,0.0,24,0.00,,,0.00,WeatherCatV1.11B39,2013-02-20 15:53:00,
2013-02-20 10:58:00,45.5,9.9,30.14,WSW,243,2.0,2.0,23,0.00,,,0.00,WeatherCatV1.11B39,2013-02-20 15:58:00,
2013-02-20 11:03:00,45.7,10.1,30.12,NW,309,0.0,5.0,23,0.00,,,0.00,WeatherCatV1.11B39,2013-02-20 16:03:00,
2013-02-20 11:08:00,46.1,11.3,30.12,SSW,205,2.0,4.0,24,0.00,,,0.00,WeatherCatV1.11B39,2013-02-20 16:08:00,
2013-02-20 11:13:00,46.2,11.4,30.12,WSW,239,0.0,1.0,24,0.00,,,0.00,WeatherCatV1.11B39,2013-02-20 16:13:00,
2013-02-20 11:18:00,46.7,9.9,30.13,WNW,296,6.0,6.0,22,0.00,,,0.00,WeatherCatV1.11B39,2013-02-20 16:18:00,
2013-02-20 11:23:00,46.8,10.0,30.13,NW,304,0.0,2.0,22,0.00,,,0.00,WeatherCatV1.11B39,2013-02-20 16:23:00,
2013-02-20 11:28:00,47.1,10.2,30.13,ESE,104,1.0,3.0,22,0.00,,,0.00,WeatherCatV1.11B39,2013-02-20 16:28:00,
2013-02-20 11:33:00,47.9,9.9,30.12,ESE,109,0.0,0.0,21,0.00,,,0.00,WeatherCatV1.11B39,2013-02-20 16:33:00,
2013-02-20 11:38:00,48.0,11.0,30.12,North,349,0.0,8.0,22,0.00,,,0.00,WeatherCatV1.11B39,2013-02-20 16:38:00,
2013-02-20 11:43:00,48.3,10.2,30.12,WNW,288,0.0,4.0,21,0.00,,,0.00,WeatherCatV1.11B39,2013-02-20 16:43:00,
2013-02-20 11:48:00,48.6,11.5,30.11,WNW,299,1.0,6.0,22,0.00,,,0.00,WeatherCatV1.11B39,2013-02-20 16:48:00,
2013-02-20 11:53:00,49.1,9.8,30.11,SSW,200,0.0,1.0,20,0.00,,,0.00,WeatherCatV1.11B39,2013-02-20 16:53:00,
2013-02-20 11:58:00,49.2,9.9,30.11,NE,44,10.0,10.0,20,0.00,,,0.00,WeatherCatV1.11B39,2013-02-20 16:58:00,
2013-02-20 12:03:00,49.8,10.4,30.10,North,350,0.0,1.0,20,0.00,,,0.00,WeatherCatV1.11B39,2013-02-20 17:03:00,
2013-02-20 12:08:00,50.4,10.9,30.10,NW,318,0.0,2.0,20,0.00,,,0.00,WeatherCatV1.11B39,2013-02-20 17:08:00,
2013-02-20 12:13:00,51.0,11.4,30.10,North,0,7.0,11.0,20,0.00,,,0.00,WeatherCatV1.11B39,2013-02-20 17:13:00,
2013-02-20 12:18:00,51.1,11.4,30.10,NW,316,2.0,14.0,20,0.00,,,0.00,WeatherCatV1.11B39,2013-02-20 17:18:00,
2013-02-20 12:23:00,51.6,11.9,30.10,NNW,336,10.0,10.0,20,0.00,,,0.00,WeatherCatV1.11B39,2013-02-20 17:23:00,
2013-02-20 12:28:00,51.7,11.9,30.10,North,0,8.0,11.0,20,0.00,,,0.00,WeatherCatV1.11B39,2013-02-20 17:28:00,
2013-02-20 12:33:00,51.9,12.1,30.10,NW,326,2.0,16.0,20,0.00,,,0.00,WeatherCatV1.11B39,2013-02-20 17:33:00,
2013-02-20 12:38:00,52.0,12.2,30.10,North,0,2.0,7.0,20,0.00,,,0.00,WeatherCatV1.11B39,2013-02-20 17:38:00,
2013-02-20 12:43:00,52.0,12.2,30.10,WNW,295,1.0,12.0,20,0.00,,,0.00,WeatherCatV1.11B39,2013-02-20 17:43:00,
2013-02-20 12:48:00,52.3,12.4,30.09,SW,236,2.0,3.0,20,0.00,,,0.00,WeatherCatV1.11B39,2013-02-20 17:48:00,
2013-02-20 12:53:00,52.9,12.9,30.09,NNW,329,5.0,6.0,20,0.00,,,0.00,WeatherCatV1.11B39,2013-02-20 17:53:00,
2013-02-20 12:58:00,52.8,12.9,30.09,NNW,332,6.0,9.0,20,0.00,,,0.00,WeatherCatV1.11B39,2013-02-20 17:58:00,
2013-02-20 13:03:00,52.6,12.7,30.09,North,0,7.0,13.0,20,0.00,,,0.00,WeatherCatV1.11B39,2013-02-20 18:03:00,
2013-02-20 13:08:00,52.8,12.9,30.09,NNW,330,0.0,10.0,20,0.00,,,0.00,WeatherCatV1.11B39,2013-02-20 18:08:00,
2013-02-20 13:13:00,53.1,13.1,30.09,West,280,0.0,8.0,20,0.00,,,0.00,WeatherCatV1.11B39,2013-02-20 18:13:00,
2013-02-20 13:18:00,53.6,13.5,30.09,NW,325,0.0,5.0,20,0.00,,,0.00,WeatherCatV1.11B39,2013-02-20 18:18:00,
2013-02-20 13:23:00,53.3,13.3,30.09,NNW,346,4.0,9.0,20,0.00,,,0.00,WeatherCatV1.11B39,2013-02-20 18:23:00,
2013-02-20 13:28:00,52.9,12.9,30.09,WSW,239,0.0,5.0,20,0.00,,,0.00,WeatherCatV1.11B39,2013-02-20 18:28:00,
2013-02-20 13:33:00,53.1,1.9,30.08,NNW,346,5.0,8.0,12,0.00,,,0.00,WeatherCatV1.11B39,2013-02-20 18:33:00,
2013-02-20 13:38:00,53.1,1.9,30.08,NNW,335,3.0,7.0,12,0.00,,,0.00,WeatherCatV1.11B39,2013-02-20 18:38:00,
2013-02-20 13:43:00,53.3,2.0,30.08,North,357,6.0,12.0,12,0.00,,,0.00,WeatherCatV1.11B39,2013-02-20 18:43:00,
2013-02-20 13:48:00,53.5,2.2,30.08,NW,320,4.0,13.0,12,0.00,,,0.00,WeatherCatV1.11B39,2013-02-20 18:48:00,
2013-02-20 13:53:00,54.2,2.7,30.08,NNW,343,0.0,2.0,12,0.00,,,0.00,WeatherCatV1.11B39,2013-02-20 18:53:00,
2013-02-20 13:58:00,54.4,2.9,30.08,West,277,8.0,8.0,12,0.00,,,0.00,WeatherCatV1.11B39,2013-02-20 18:58:00,
2013-02-20 14:03:00,54.5,3.0,30.07,North,357,6.0,7.0,12,0.00,,,0.00,WeatherCatV1.11B39,2013-02-20 19:03:00,
2013-02-20 14:08:00,54.5,3.0,30.07,NNE,16,0.0,6.0,12,0.00,,,0.00,WeatherCatV1.11B39,2013-02-20 19:08:00,
2013-02-20 14:13:00,54.5,3.0,30.07,NNE,17,0.0,3.0,12,0.00,,,0.00,WeatherCatV1.11B39,2013-02-20 19:13:00,
2013-02-20 14:18:00,55.0,3.4,30.07,NNW,330,0.0,5.0,12,0.00,,,0.00,WeatherCatV1.11B39,2013-02-20 19:18:00,
2013-02-20 14:23:00,55.6,3.8,30.07,NNW,336,1.0,10.0,12,0.00,,,0.00,WeatherCatV1.11B39,2013-02-20 19:23:00,
2013-02-20 14:28:00,55.1,3.4,30.07,North,0,5.0,7.0,12,0.00,,,0.00,WeatherCatV1.11B39,2013-02-20 19:28:00,
2013-02-20 14:33:00,54.7,3.1,30.07,NW,320,2.0,5.0,12,0.00,,,0.00,WeatherCatV1.11B39,2013-02-20 19:33:00,
2013-02-20 14:38:00,54.7,3.1,30.07,WNW,285,2.0,5.0,12,0.00,,,0.00,WeatherCatV1.11B39,2013-02-20 19:38:00,
2013-02-20 14:43:00,55.0,3.4,30.07,WNW,302,7.0,8.0,12,0.00,,,0.00,WeatherCatV1.11B39,2013-02-20 19:43:00,
2013-02-20 14:48:00,55.1,3.4,30.07,West,263,3.0,6.0,12,0.00,,,0.00,WeatherCatV1.11B39,2013-02-20 19:48:00,
2013-02-20 14:53:00,55.0,3.4,30.07,NE,42,1.0,4.0,12,0.00,,,0.00,WeatherCatV1.11B39,2013-02-20 19:53:00,
2013-02-20 14:58:00,55.1,3.4,30.07,NNW,347,2.0,7.0,12,0.00,,,0.00,WeatherCatV1.11B39,2013-02-20 19:58:00,
2013-02-20 15:03:00,55.1,3.4,30.06,NNW,333,3.0,8.0,12,0.00,,,0.00,WeatherCatV1.11B39,2013-02-20 20:03:00,
2013-02-20 15:08:00,54.7,3.1,30.06,North,356,5.0,7.0,12,0.00,,,0.00,WeatherCatV1.11B39,2013-02-20 20:08:00,
2013-02-20 15:13:00,54.5,3.0,30.06,WNW,302,6.0,8.0,12,0.00,,,0.00,WeatherCatV1.11B39,2013-02-20 20:13:00,
2013-02-20 15:18:00,54.5,3.0,30.07,NNW,342,1.0,4.0,12,0.00,,,0.00,WeatherCatV1.11B39,2013-02-20 20:18:00,
2013-02-20 15:23:00,54.4,2.9,30.07,NNW,344,0.0,10.0,12,0.00,,,0.00,WeatherCatV1.11B39,2013-02-20 20:23:00,
2013-02-20 15:28:00,54.1,2.6,30.07,NNE,24,2.0,7.0,12,0.00,,,0.00,WeatherCatV1.11B39,2013-02-20 20:28:00,
2013-02-20 15:33:00,53.8,2.4,30.07,WNW,285,3.0,7.0,12,0.00,,,0.00,WeatherCatV1.11B39,2013-02-20 20:33:00,
2013-02-20 15:38:00,53.3,2.0,30.07,West,275,3.0,5.0,12,0.00,,,0.00,WeatherCatV1.11B39,2013-02-20 20:38:00,
2013-02-20 15:43:00,53.2,1.9,30.07,West,272,7.0,7.0,12,0.00,,,0.00,WeatherCatV1.11B39,2013-02-20 20:43:00,
2013-02-20 15:48:00,52.9,1.7,30.09,WNW,299,2.0,3.0,12,0.00,,,0.00,WeatherCatV1.11B39,2013-02-20 20:48:00,
2013-02-20 15:53:00,52.6,1.5,30.09,North,359,1.0,8.0,12,0.00,,,0.00,WeatherCatV1.11B39,2013-02-20 20:53:00,
2013-02-20 15:58:00,52.5,1.4,30.09,NW,306,0.0,3.0,12,0.00,,,0.00,WeatherCatV1.11B39,2013-02-20 20:58:00,
2013-02-20 16:03:00,52.2,1.2,30.09,NNW,342,4.0,7.0,12,0.00,,,0.00,WeatherCatV1.11B39,2013-02-20 21:03:00,
2013-02-20 16:08:00,52.0,1.0,30.09,North,359,3.0,4.0,12,0.00,,,0.00,WeatherCatV1.11B39,2013-02-20 21:08:00,
2013-02-20 16:13:00,51.9,0.9,30.09,NW,316,0.0,1.0,12,0.00,,,0.00,WeatherCatV1.11B39,2013-02-20 21:13:00,
2013-02-20 16:18:00,51.7,0.8,30.10,WNW,285,0.0,8.0,12,0.00,,,0.00,WeatherCatV1.11B39,2013-02-20 21:18:00,
2013-02-20 16:23:00,51.6,0.7,30.10,NW,305,0.0,0.0,12,0.00,,,0.00,WeatherCatV1.11B39,2013-02-20 21:23:00,
2013-02-20 16:28:00,51.6,0.7,30.10,SE,131,2.0,3.0,12,0.00,,,0.00,WeatherCatV1.11B39,2013-02-20 21:28:00,
2013-02-20 16:33:00,51.4,0.5,30.11,South,185,1.0,1.0,12,0.00,,,0.00,WeatherCatV1.11B39,2013-02-20 21:33:00,
2013-02-20 16:38:00,51.4,18.6,30.11,WSW,250,0.0,0.0,27,0.00,,,0.00,WeatherCatV1.11B39,2013-02-20 21:38:00,
2013-02-20 16:43:00,51.4,18.6,30.11,WNW,296,1.0,2.0,27,0.00,,,0.00,WeatherCatV1.11B39,2013-02-20 21:43:00,
2013-02-20 16:48:00,51.4,18.6,30.12,SSE,157,0.0,0.0,27,0.00,,,0.00,WeatherCatV1.11B39,2013-02-20 21:48:00,
2013-02-20 16:53:00,51.4,19.4,30.12,North,0,2.0,2.0,28,0.00,,,0.00,WeatherCatV1.11B39,2013-02-20 21:53:00,
2013-02-20 16:58:00,51.4,20.2,30.12,SE,138,0.0,5.0,29,0.00,,,0.00,WeatherCatV1.11B39,2013-02-20 21:58:00,
2013-02-20 17:03:00,51.4,18.6,30.12,NW,305,0.0,7.0,27,0.00,,,0.00,WeatherCatV1.11B39,2013-02-20 22:03:00,
2013-02-20 17:08:00,51.4,18.6,30.12,WNW,295,0.0,6.0,27,0.00,,,0.00,WeatherCatV1.11B39,2013-02-20 22:08:00,
2013-02-20 17:13:00,48.0,13.9,30.12,NNW,337,0.0,3.0,25,0.00,,,0.00,WeatherCatV1.11B39,2013-02-20 22:13:00,
2013-02-20 17:18:00,47.4,14.3,30.14,WSW,237,0.0,5.0,26,0.00,,,0.00,WeatherCatV1.11B39,2013-02-20 22:18:00,
2013-02-20 17:23:00,47.4,15.1,30.14,WSW,243,0.0,1.0,27,0.00,,,0.00,WeatherCatV1.11B39,2013-02-20 22:23:00,
2013-02-20 17:28:00,47.3,15.0,30.14,WSW,248,0.0,10.0,27,0.00,,,0.00,WeatherCatV1.11B39,2013-02-20 22:28:00,
2013-02-20 17:33:00,47.3,17.5,30.14,NW,320,3.0,6.0,30,0.00,,,0.00,WeatherCatV1.11B39,2013-02-20 22:33:00,
2013-02-20 17:38:00,46.5,15.2,30.14,WNW,287,0.0,5.0,28,0.00,,,0.00,WeatherCatV1.11B39,2013-02-20 22:38:00,
2013-02-20 17:43:00,46.5,16.8,30.14,NNW,328,0.0,10.0,30,0.00,,,0.00,WeatherCatV1.11B39,2013-02-20 22:43:00,
2013-02-20 17:48:00,45.8,14.6,30.14,SSW,205,0.0,3.0,28,0.00,,,0.00,WeatherCatV1.11B39,2013-02-20 22:48:00,
2013-02-20 17:53:00,45.4,15.0,30.14,ESE,117,1.0,4.0,29,0.00,,,0.00,WeatherCatV1.11B39,2013-02-20 22:53:00,
2013-02-20 17:58:00,44.9,14.6,30.14,SW,215,0.0,3.0,29,0.00,,,0.00,WeatherCatV1.11B39,2013-02-20 22:58:00,
2013-02-20 18:03:00,44.6,14.3,30.14,North,356,0.0,0.0,29,0.00,,,0.00,WeatherCatV1.11B39,2013-02-20 23:03:00,
2013-02-20 18:08:00,44.5,15.0,30.14,NNW,335,0.0,2.0,30,0.00,,,0.00,WeatherCatV1.11B39,2013-02-20 23:08:00,
2013-02-20 18:13:00,44.2,14.8,30.14,ENE,65,0.0,0.0,30,0.00,,,0.00,WeatherCatV1.11B39,2013-02-20 23:13:00,
2013-02-20 18:18:00,43.9,14.5,30.12,NW,322,2.0,6.0,30,0.00,,,0.00,WeatherCatV1.11B39,2013-02-20 23:18:00,
2013-02-20 18:23:00,43.5,16.3,30.12,NNW,336,0.0,1.0,33,0.00,,,0.00,WeatherCatV1.11B39,2013-02-20 23:23:00,
2013-02-20 18:28:00,43.3,16.8,30.12,NNW,336,0.0,0.0,34,0.00,,,0.00,WeatherCatV1.11B39,2013-02-20 23:28:00,
2013-02-20 18:33:00,43.2,16.1,30.11,NNW,336,0.0,1.0,33,0.00,,,0.00,WeatherCatV1.11B39,2013-02-20 23:33:00,
2013-02-20 18:38:00,43.1,14.5,30.11,NNW,336,0.0,0.0,31,0.00,,,0.00,WeatherCatV1.11B39,2013-02-20 23:38:00,
2013-02-20 18:43:00,42.9,16.5,30.11,NW,322,0.0,0.0,34,0.00,,,0.00,WeatherCatV1.11B39,2013-02-20 23:43:00,
2013-02-20 18:48:00,42.6,16.2,30.11,NW,322,0.0,0.0,34,0.00,,,0.00,WeatherCatV1.11B39,2013-02-20 23:48:00,
2013-02-20 18:53:00,42.5,14.7,30.11,NW,315,0.0,0.0,32,0.00,,,0.00,WeatherCatV1.11B39,2013-02-20 23:53:00,
2013-02-20 18:58:00,42.3,16.6,30.11,NW,313,0.0,0.0,35,0.00,,,0.00,WeatherCatV1.11B39,2013-02-20 23:58:00,
2013-02-20 19:03:00,42.2,15.2,30.11,NW,313,0.0,0.0,33,0.00,,,0.00,WeatherCatV1.11B39,2013-02-21 00:03:00,
2013-02-20 19:08:00,41.9,15.6,30.11,NW,313,0.0,0.0,34,0.00,,,0.00,WeatherCatV1.11B39,2013-02-21 00:08:00,
2013-02-20 19:13:00,41.8,16.2,30.11,NW,313,0.0,0.0,35,0.00,,,0.00,WeatherCatV1.11B39,2013-02-21 00:13:00,
2013-02-20 19:18:00,41.6,17.9,30.09,NW,313,0.0,0.0,38,0.00,,,0.00,WeatherCatV1.11B39,2013-02-21 00:18:00,
2013-02-20 19:23:00,41.5,17.8,30.09,NW,313,0.0,0.0,38,0.00,,,0.00,WeatherCatV1.11B39,2013-02-21 00:23:00,
2013-02-20 19:28:00,41.2,17.5,30.09,NW,313,0.0,0.0,38,0.00,,,0.00,WeatherCatV1.11B39,2013-02-21 00:28:00,
2013-02-20 19:33:00,40.9,17.3,30.09,NW,313,0.0,0.0,38,0.00,,,0.00,WeatherCatV1.11B39,2013-02-21 00:33:00,
2013-02-20 19:38:00,40.8,17.2,30.09,NW,309,0.0,0.0,38,0.00,,,0.00,WeatherCatV1.11B39,2013-02-21 00:38:00,
2013-02-20 19:43:00,40.5,16.9,30.09,NW,309,0.0,1.0,38,0.00,,,0.00,WeatherCatV1.11B39,2013-02-21 00:43:00,
2013-02-20 19:48:00,40.3,16.7,30.11,NW,309,0.0,0.0,38,0.00,,,0.00,WeatherCatV1.11B39,2013-02-21 00:48:00,
2013-02-20 19:53:00,40.2,16.6,30.11,NW,309,0.0,0.0,38,0.00,,,0.00,WeatherCatV1.11B39,2013-02-21 00:53:00,
2013-02-20 19:58:00,39.9,16.4,30.11,NW,309,0.0,0.0,38,0.00,,,0.00,WeatherCatV1.11B39,2013-02-21 00:58:00,
2013-02-20 20:03:00,39.6,16.1,30.11,NW,309,0.0,0.0,38,0.00,,,0.00,WeatherCatV1.11B39,2013-02-21 01:03:00,
2013-02-20 20:08:00,39.3,15.8,30.11,NW,309,0.0,0.0,38,0.00,,,0.00,WeatherCatV1.11B39,2013-02-21 01:08:00,
2013-02-20 20:13:00,38.9,17.2,30.11,NW,309,0.0,0.0,41,0.00,,,0.00,WeatherCatV1.11B39,2013-02-21 01:13:00,
2013-02-20 20:18:00,38.6,18.1,30.09,NW,309,0.0,0.0,43,0.00,,,0.00,WeatherCatV1.11B39,2013-02-21 01:18:00,
2013-02-20 20:23:00,38.5,21.0,30.09,NW,309,0.0,0.0,49,0.00,,,0.00,WeatherCatV1.11B39,2013-02-21 01:23:00,
2013-02-20 20:28:00,38.2,16.0,30.09,NW,309,0.0,0.0,40,0.00,,,0.00,WeatherCatV1.11B39,2013-02-21 01:28:00,
2013-02-20 20:33:00,38.0,17.0,30.08,NW,309,0.0,0.0,42,0.00,,,0.00,WeatherCatV1.11B39,2013-02-21 01:33:00,
2013-02-20 20:38:00,37.8,17.9,30.08,NW,309,0.0,0.0,44,0.00,,,0.00,WeatherCatV1.11B39,2013-02-21 01:38:00,
2013-02-20 20:43:00,37.6,18.7,30.08,NW,309,0.0,0.0,46,0.00,,,0.00,WeatherCatV1.11B39,2013-02-21 01:43:00,
2013-02-20 20:48:00,37.8,19.4,30.08,NW,309,0.0,0.0,47,0.00,,,0.00,WeatherCatV1.11B39,2013-02-21 01:48:00,
2013-02-20 20:53:00,37.9,19.0,30.08,NW,309,0.0,0.0,46,0.00,,,0.00,WeatherCatV1.11B39,2013-02-21 01:53:00,
2013-02-20 20:58:00,38.0,21.0,30.08,NW,309,0.0,0.0,50,0.00,,,0.00,WeatherCatV1.11B39,2013-02-21 01:58:00,
2013-02-20 21:03:00,38.0,20.1,30.10,NW,309,0.0,0.0,48,0.00,,,0.00,WeatherCatV1.11B39,2013-02-21 02:03:00,
2013-02-20 21:08:00,37.9,-99.9,30.10,NW,309,0.0,0.0,-999,0.00,,,0.00,WeatherCatV1.11B39,2013-02-21 02:08:00,
2013-02-20 21:13:00,37.9,21.9,30.10,NW,309,0.0,3.0,52,0.00,,,0.00,WeatherCatV1.11B39,2013-02-21 02:13:00,
2013-02-20 21:18:00,37.9,20.5,30.09,NW,309,0.0,0.0,49,0.00,,,0.00,WeatherCatV1.11B39,2013-02-21 02:18:00,
2013-02-20 21:23:00,37.9,20.5,30.09,NW,309,0.0,0.0,49,0.00,,,0.00,WeatherCatV1.11B39,2013-02-21 02:23:00,
2013-02-20 21:28:00,37.9,20.5,30.09,NW,309,0.0,0.0,49,0.00,,,0.00,WeatherCatV1.11B39,2013-02-21 02:28:00,
2013-02-20 21:33:00,37.0,18.2,30.10,NW,309,0.0,0.0,46,0.00,,,0.00,WeatherCatV1.11B39,2013-02-21 02:33:00,
2013-02-20 21:38:00,36.8,18.0,30.10,NW,309,0.0,0.0,46,0.00,,,0.00,WeatherCatV1.11B39,2013-02-21 02:38:00,
2013-02-20 21:43:00,36.6,17.8,30.10,NW,309,0.0,0.0,46,0.00,,,0.00,WeatherCatV1.11B39,2013-02-21 02:43:00,
2013-02-20 21:48:00,36.6,18.8,30.10,NW,309,0.0,0.0,48,0.00,,,0.00,WeatherCatV1.11B39,2013-02-21 02:48:00,
2013-02-20 21:53:00,36.6,19.3,30.10,NW,309,0.0,0.0,49,0.00,,,0.00,WeatherCatV1.11B39,2013-02-21 02:53:00,
2013-02-20 21:58:00,36.6,17.8,30.10,NW,309,0.0,0.0,46,0.00,,,0.00,WeatherCatV1.11B39,2013-02-21 02:58:00,
2013-02-20 22:03:00,36.0,16.2,30.10,NW,309,0.0,0.0,44,0.00,,,0.00,WeatherCatV1.11B39,2013-02-21 03:03:00,
2013-02-20 22:08:00,36.0,19.2,30.10,NW,309,0.0,0.0,50,0.00,,,0.00,WeatherCatV1.11B39,2013-02-21 03:08:00,
2013-02-20 22:13:00,36.0,17.3,30.10,NW,309,0.0,0.0,46,0.00,,,0.00,WeatherCatV1.11B39,2013-02-21 03:13:00,
2013-02-20 22:18:00,36.2,15.9,30.10,NW,309,0.0,0.0,43,0.00,,,0.00,WeatherCatV1.11B39,2013-02-21 03:18:00,
2013-02-20 22:23:00,36.5,16.7,30.10,NW,309,0.0,0.0,44,0.00,,,0.00,WeatherCatV1.11B39,2013-02-21 03:23:00,
2013-02-20 22:28:00,36.6,16.2,30.10,NW,309,0.0,0.0,43,0.00,,,0.00,WeatherCatV1.11B39,2013-02-21 03:28:00,
2013-02-20 22:33:00,36.6,16.8,30.10,NW,309,0.0,0.0,44,0.00,,,0.00,WeatherCatV1.11B39,2013-02-21 03:33:00,
2013-02-20 22:38:00,36.6,17.3,30.10,NW,309,0.0,0.0,45,0.00,,,0.00,WeatherCatV1.11B39,2013-02-21 03:38:00,
2013-02-20 22:43:00,36.6,18.3,30.10,NW,309,0.0,0.0,47,0.00,,,0.00,WeatherCatV1.11B39,2013-02-21 03:43:00,
2013-02-20 22:48:00,36.0,18.2,30.10,NW,309,0.0,0.0,48,0.00,,,0.00,WeatherCatV1.11B39,2013-02-21 03:48:00,
2013-02-20 22:53:00,36.0,17.7,30.10,NW,309,0.0,0.0,47,0.00,,,0.00,WeatherCatV1.11B39,2013-02-21 03:53:00,
2013-02-20 22:58:00,35.9,18.1,30.10,NW,309,0.0,0.0,48,0.00,,,0.00,WeatherCatV1.11B39,2013-02-21 03:58:00,
2013-02-20 23:03:00,35.9,18.1,30.10,NW,309,0.0,0.0,48,0.00,,,0.00,WeatherCatV1.11B39,2013-02-21 04:03:00,
2013-02-20 23:08:00,36.0,18.2,30.10,NW,311,0.0,2.0,48,0.00,,,0.00,WeatherCatV1.11B39,2013-02-21 04:08:00,
2013-02-20 23:13:00,36.2,18.9,30.10,NW,311,0.0,0.0,49,0.00,,,0.00,WeatherCatV1.11B39,2013-02-21 04:13:00,
2013-02-20 23:18:00,36.3,19.0,30.09,NW,311,0.0,0.0,49,0.00,,,0.00,WeatherCatV1.11B39,2013-02-21 04:18:00,
2013-02-20 23:23:00,36.3,19.0,30.09,NW,311,0.0,0.0,49,0.00,,,0.00,WeatherCatV1.11B39,2013-02-21 04:23:00,
2013-02-20 23:28:00,36.3,18.0,30.09,NW,311,0.0,0.0,47,0.00,,,0.00,WeatherCatV1.11B39,2013-02-21 04:28:00,
2013-02-20 23:33:00,36.5,18.7,30.09,NW,311,0.0,0.0,48,0.00,,,0.00,WeatherCatV1.11B39,2013-02-21 04:33:00,
2013-02-20 23:38:00,36.6,18.3,30.09,NW,311,0.0,1.0,47,0.00,,,0.00,WeatherCatV1.11B39,2013-02-21 04:38:00,
2013-02-20 23:43:00,36.8,18.5,30.09,NW,311,0.0,0.0,47,0.00,,,0.00,WeatherCatV1.11B39,2013-02-21 04:43:00,
2013-02-20 23:48:00,36.8,18.5,30.09,NW,311,0.0,0.0,47,0.00,,,0.00,WeatherCatV1.11B39,2013-02-21 04:48:00,
2013-02-20 23:53:00,36.8,18.0,30.09,NW,311,0.0,0.0,46,0.00,,,0.00,WeatherCatV1.11B39,2013-02-21 04:53:00,
2013-02-20 23:58:00,36.6,17.8,30.09,NW,311,0.0,0.0,46,0.00,,,0.00,WeatherCatV1.11B39,2013-02-21 04:58:00,